Aviation Digital Data Service (ADDS)

Output produced by TAFs form (1019 UTC 28 July 2014)
found at http://aviationweather.gov/adds/tafs/
 
KASE 280520Z 2806/2906 14010KT P6SM BKN120 
     FM281500 36005KT P6SM SCT100 BKN150 
     FM282000 02003KT P6SM VCTS SCT080CB BKN120 
     FM290000 11008KT P6SM OVC100